Time;durP1;ratioP1;P1;durP2;ratioP2;P2;SDS_P1;SDS_P2;PMS_P1;PMS_P2;Temp;Humidity;BMP_temperature;BMP_pressure;BME280_temperature;BME280_humidity;BME280_pressure;Samples;Min_cycle;Max_cycle;Signal;HPM_P1;HPM_P2
2021/03/18 00:01:05;;;;;;;6.40;1.63;;;2.50;91.60;;;;;;5055308;28;20021;-77
2021/03/18 00:03:33;;;;;;;7.83;1.70;;;2.50;91.60;;;;;;5056253;28;20423;-76
2021/03/18 00:06:00;;;;;;;7.27;1.83;;;2.50;91.60;;;;;;5056180;28;20027;-77
2021/03/18 00:08:26;;;;;;;4.40;1.43;;;2.50;91.60;;;;;;5038356;28;20028;-78
2021/03/18 00:10:53;;;;;;;10.40;1.80;;;2.50;91.60;;;;;;5054946;28;20033;-76
2021/03/18 00:13:22;;;;;;;10.23;1.80;;;2.50;91.60;;;;;;5074518;28;20038;-76
2021/03/18 00:15:48;;;;;;;7.30;1.70;;;2.50;91.60;;;;;;5074345;28;20028;-76
2021/03/18 00:18:16;;;;;;;7.57;1.87;;;2.40;91.50;;;;;;5075928;28;20427;-76
2021/03/18 00:20:42;;;;;;;2.70;1.07;;;2.40;91.50;;;;;;5074634;28;20028;-76
2021/03/18 00:23:07;;;;;;;6.13;1.83;;;2.40;91.60;;;;;;5074594;28;20073;-76
2021/03/18 00:25:33;;;;;;;8.60;1.80;;;2.40;91.60;;;;;;5057277;28;20024;-76
2021/03/18 00:27:59;;;;;;;6.90;1.47;;;2.40;91.70;;;;;;5054564;28;20013;-76
2021/03/18 00:30:26;;;;;;;6.53;1.47;;;2.40;91.60;;;;;;5055574;28;20033;-72
2021/03/18 00:32:52;;;;;;;7.60;1.10;;;2.30;91.70;;;;;;5055768;28;20040;-72
2021/03/18 00:35:20;;;;;;;5.77;1.40;;;2.30;91.70;;;;;;5054389;28;20021;-72
2021/03/18 00:37:47;;;;;;;11.43;1.53;;;2.30;91.70;;;;;;5055485;28;20036;-73
2021/03/18 00:40:19;;;;;;;7.17;1.77;;;2.30;91.80;;;;;;5063461;28;20041;-73
2021/03/18 00:42:51;;;;;;;7.90;1.37;;;2.30;91.80;;;;;;5074170;28;20124;-71
2021/03/18 00:45:17;;;;;;;5.80;1.53;;;2.20;91.80;;;;;;5075569;28;20016;-72
2021/03/18 00:47:43;;;;;;;7.43;1.50;;;2.20;91.90;;;;;;5075409;28;20017;-72
2021/03/18 00:50:10;;;;;;;9.00;2.17;;;2.20;92.00;;;;;;5074243;28;20024;-72
2021/03/18 00:52:35;;;;;;;6.93;1.77;;;2.20;92.00;;;;;;5075298;28;20082;-72
2021/03/18 00:55:01;;;;;;;11.23;2.43;;;2.10;91.90;;;;;;5070840;28;20052;-72
2021/03/18 00:57:26;;;;;;;10.13;2.40;;;2.10;92.00;;;;;;5055101;28;20121;-72
2021/03/18 00:59:52;;;;;;;10.17;2.13;;;2.10;92.00;;;;;;5054077;28;20473;-73
2021/03/18 01:02:18;;;;;;;7.33;1.90;;;2.10;92.00;;;;;;5054423;28;20063;-73
2021/03/18 01:04:44;;;;;;;9.97;2.10;;;2.10;92.00;;;;;;5053992;28;20535;-72
2021/03/18 01:07:10;;;;;;;10.57;2.07;;;2.10;92.00;;;;;;5055028;28;20033;-73
2021/03/18 01:09:36;;;;;;;9.83;3.70;;;2.10;92.00;;;;;;5055102;28;20381;-72
2021/03/18 01:12:01;;;;;;;4.20;1.53;;;2.10;92.00;;;;;;5054915;28;20079;-72
2021/03/18 01:14:27;;;;;;;12.50;2.60;;;2.10;92.10;;;;;;5053779;28;20017;-71
2021/03/18 01:16:53;;;;;;;11.17;2.10;;;2.10;92.10;;;;;;5036858;28;20427;-71
2021/03/18 01:19:21;;;;;;;12.83;2.77;;;2.10;92.10;;;;;;5053600;28;20096;-72
2021/03/18 01:21:50;;;;;;;12.17;2.60;;;2.00;92.10;;;;;;5053559;28;20029;-72
2021/03/18 01:24:15;;;;;;;6.40;1.70;;;2.00;92.10;;;;;;5053431;28;20075;-72
2021/03/18 01:26:43;;;;;;;12.13;2.30;;;2.20;92.10;;;;;;5053304;28;20396;-72
2021/03/18 01:29:09;;;;;;;6.60;2.20;;;2.00;92.10;;;;;;5068713;28;20029;-72
2021/03/18 01:31:36;;;;;;;12.03;2.13;;;2.00;92.10;;;;;;5053362;28;20037;-72
2021/03/18 01:34:02;;;;;;;8.90;2.10;;;2.00;92.10;;;;;;5054763;28;20056;-72
2021/03/18 01:36:29;;;;;;;13.67;1.97;;;2.00;92.10;;;;;;5054392;28;20082;-73
2021/03/18 01:38:55;;;;;;;7.87;2.07;;;2.00;92.10;;;;;;5053453;28;20040;-72
2021/03/18 01:41:22;;;;;;;7.13;1.67;;;2.00;92.20;;;;;;5053096;28;20049;-72
2021/03/18 01:43:48;;;;;;;5.87;2.03;;;2.00;92.30;;;;;;5053648;28;20499;-72
2021/03/18 01:46:15;;;;;;;7.07;2.00;;;2.00;92.30;;;;;;5054316;28;20032;-72
2021/03/18 01:48:42;;;;;;;5.20;1.77;;;2.00;92.30;;;;;;5053072;28;20028;-72
2021/03/18 01:51:08;;;;;;;8.87;2.00;;;2.00;92.30;;;;;;5053001;28;20508;-72
2021/03/18 01:53:34;;;;;;;12.30;2.00;;;2.00;92.30;;;;;;5054224;28;20433;-72
2021/03/18 01:56:02;;;;;;;11.63;2.20;;;2.00;92.30;;;;;;5054103;28;20021;-71
2021/03/18 01:58:28;;;;;;;8.90;1.93;;;2.00;92.40;;;;;;5054096;28;20017;-72
2021/03/18 02:01:00;;;;;;;8.53;2.83;;;2.00;92.40;;;;;;5071590;28;20032;-72
2021/03/18 02:03:27;;;;;;;12.00;2.20;;;2.00;92.50;;;;;;5073882;28;20017;-72
2021/03/18 02:05:53;;;;;;;8.63;1.87;;;2.00;92.50;;;;;;5073859;28;20017;-73
2021/03/18 02:08:19;;;;;;;8.30;2.27;;;2.00;92.80;;;;;;5072665;28;20021;-72
2021/03/18 02:10:45;;;;;;;9.67;2.20;;;2.00;92.60;;;;;;5072724;28;20086;-73
2021/03/18 02:13:13;;;;;;;13.83;2.47;;;2.00;92.60;;;;;;5073904;28;20028;-72
2021/03/18 02:15:46;;;;;;;7.50;1.90;;;2.00;92.60;;;;;;5072141;28;20047;-72
2021/03/18 02:18:34;;;;;;;10.53;2.40;;;2.00;92.70;;;;;;5073018;28;20020;-72
2021/03/18 02:21:37;;;;;;;7.67;1.77;;;2.00;92.70;;;;;;5073597;28;20028;-73
2021/03/18 02:24:48;;;;;;;10.83;2.20;;;2.00;92.80;;;;;;5072310;28;20567;-71
2021/03/18 02:27:16;;;;;;;6.50;1.93;;;2.00;93.00;;;;;;5073701;28;20078;-71
2021/03/18 02:30:21;;;;;;;11.00;2.47;;;2.00;92.70;;;;;;5073455;28;20028;-71
2021/03/18 02:32:58;;;;;;;8.25;1.40;;;2.10;92.70;;;;;;5061443;28;20037;-71
2021/03/18 02:35:30;;;;;;;6.27;2.10;;;2.00;92.70;;;;;;5054382;28;20519;-72
2021/03/18 02:38:29;;;;;;;8.77;1.87;;;2.00;92.70;;;;;;5053276;28;20493;-72
2021/03/18 02:41:02;;;;;;;10.80;1.97;;;2.10;92.70;;;;;;5051785;28;20124;-72
2021/03/18 02:43:35;;;;;;;12.55;2.88;;;2.10;92.80;;;;;;5053150;28;20044;-72
2021/03/18 02:46:02;;;;;;;5.70;2.30;;;2.10;93.10;;;;;;5053344;28;20033;-72
2021/03/18 02:48:33;;;;;;;12.03;2.20;;;2.10;92.70;;;;;;5035867;28;20522;-72
2021/03/18 02:50:59;;;;;;;5.67;2.17;;;2.10;92.70;;;;;;5051724;28;20033;-72
2021/03/18 02:53:28;;;;;;;5.70;2.20;;;2.00;92.60;;;;;;5035390;28;20078;-72
2021/03/18 02:55:55;;;;;;;8.83;2.30;;;2.00;92.60;;;;;;5051810;28;20495;-72
2021/03/18 02:58:23;;;;;;;14.60;2.80;;;2.00;92.90;;;;;;5035325;28;20473;-72
2021/03/18 03:00:51;;;;;;;6.73;1.87;;;2.00;92.70;;;;;;5053009;28;20040;-72
2021/03/18 03:03:18;;;;;;;7.53;2.23;;;2.00;92.70;;;;;;5054096;28;20378;-72
2021/03/18 03:05:50;;;;;;;8.33;2.50;;;2.00;92.60;;;;;;5053056;28;20060;-72
2021/03/18 03:08:17;;;;;;;10.40;2.27;;;1.90;92.70;;;;;;5052938;28;20461;-72
2021/03/18 03:10:43;;;;;;;9.63;2.20;;;1.90;92.70;;;;;;5035117;28;20033;-72
2021/03/18 03:13:09;;;;;;;7.83;2.50;;;1.90;92.80;;;;;;5051689;28;20033;-72
2021/03/18 03:15:36;;;;;;;11.23;2.40;;;2.00;92.90;;;;;;5051585;28;20392;-72
2021/03/18 03:18:06;;;;;;;6.97;2.33;;;2.00;93.00;;;;;;5035616;28;20500;-72
2021/03/18 03:20:33;;;;;;;6.90;2.27;;;2.00;93.00;;;;;;5052008;28;20040;-72
2021/03/18 03:23:00;;;;;;;9.73;2.43;;;2.00;93.00;;;;;;5035131;28;20033;-72
2021/03/18 03:25:27;;;;;;;12.53;3.00;;;2.00;93.00;;;;;;5055901;28;20029;-72
2021/03/18 03:27:53;;;;;;;10.13;2.97;;;2.00;93.00;;;;;;5055498;28;20170;-72
2021/03/18 03:30:19;;;;;;;7.40;2.80;;;2.00;93.10;;;;;;5055651;28;20029;-71
2021/03/18 03:32:46;;;;;;;15.43;3.47;;;2.00;93.10;;;;;;5056787;28;20107;-72
2021/03/18 03:35:14;;;;;;;11.33;3.37;;;2.00;93.10;;;;;;5069573;28;20498;-72
2021/03/18 03:37:40;;;;;;;13.87;4.07;;;2.00;93.10;;;;;;5075344;28;20033;-72
2021/03/18 03:40:09;;;;;;;9.57;3.07;;;2.00;93.10;;;;;;5076917;28;20028;-72
2021/03/18 03:42:35;;;;;;;7.73;2.93;;;2.00;93.10;;;;;;5076529;28;20448;-72
2021/03/18 03:45:01;;;;;;;10.00;3.10;;;2.00;93.10;;;;;;5076691;28;20235;-72
2021/03/18 03:47:26;;;;;;;13.87;3.40;;;2.00;93.10;;;;;;5076460;28;20427;-72
2021/03/18 03:49:52;;;;;;;13.20;3.47;;;2.00;93.10;;;;;;5074619;28;20031;-72
2021/03/18 03:52:50;;;;;;;13.53;3.67;;;2.00;93.10;;;;;;5076411;28;20068;-72
2021/03/18 03:55:44;;;;;;;14.67;3.10;;;2.00;93.10;;;;;;5075315;28;20040;-73
2021/03/18 03:58:26;;;;;;;7.03;2.38;;;2.00;93.20;;;;;;5072870;28;20112;-73
2021/03/18 04:00:53;;;;;;;9.77;3.73;;;2.10;93.30;;;;;;5055035;28;20392;-72
2021/03/18 04:03:20;;;;;;;9.93;3.00;;;2.10;93.20;;;;;;5055097;28;20024;-73
2021/03/18 04:05:47;;;;;;;9.90;3.70;;;2.10;93.20;;;;;;5058414;28;20329;-73
2021/03/18 04:08:14;;;;;;;10.77;3.20;;;2.10;93.20;;;;;;5076241;28;20120;-72
2021/03/18 04:10:41;;;;;;;8.37;3.17;;;2.10;93.10;;;;;;5074969;28;20024;-74
2021/03/18 04:13:11;;;;;;;11.23;3.63;;;2.10;93.10;;;;;;5074850;28;20356;-73
2021/03/18 04:15:39;;;;;;;12.23;3.40;;;2.10;93.10;;;;;;5075999;28;20107;-73
2021/03/18 04:18:09;;;;;;;11.63;3.07;;;2.10;93.00;;;;;;5075046;28;20078;-72
2021/03/18 04:20:37;;;;;;;7.90;3.10;;;2.10;93.00;;;;;;5075824;28;20025;-73
2021/03/18 04:23:06;;;;;;;10.23;3.17;;;2.00;92.90;;;;;;5059444;28;20040;-73
2021/03/18 04:25:33;;;;;;;9.60;3.50;;;2.00;92.90;;;;;;5073408;28;20028;-73
2021/03/18 04:27:59;;;;;;;10.73;3.47;;;2.00;92.90;;;;;;5074552;28;20514;-73
2021/03/18 04:30:27;;;;;;;12.90;4.07;;;2.00;92.90;;;;;;5057611;28;20025;-73
2021/03/18 04:32:53;;;;;;;9.23;3.77;;;1.90;92.90;;;;;;5057594;28;20024;-72
2021/03/18 04:35:20;;;;;;;12.67;3.87;;;1.90;93.00;;;;;;5074758;28;20056;-73
2021/03/18 04:37:46;;;;;;;10.67;3.77;;;1.80;93.00;;;;;;5072357;28;20361;-72
2021/03/18 04:40:15;;;;;;;15.20;5.40;;;1.80;93.00;;;;;;5074203;28;20021;-72
2021/03/18 04:42:41;;;;;;;7.03;3.47;;;1.80;93.00;;;;;;5075332;28;20098;-72
2021/03/18 04:45:08;;;;;;;10.77;3.93;;;1.80;93.10;;;;;;5074379;28;20033;-72
2021/03/18 04:47:36;;;;;;;9.43;3.43;;;1.80;93.10;;;;;;5074103;28;20029;-72
2021/03/18 04:50:04;;;;;;;15.20;3.93;;;1.80;93.20;;;;;;5075129;28;20040;-73
2021/03/18 04:52:29;;;;;;;11.20;3.77;;;1.70;93.20;;;;;;5075676;28;20384;-72
2021/03/18 04:54:55;;;;;;;12.37;3.57;;;1.70;93.30;;;;;;5072171;28;20028;-72
2021/03/18 04:57:25;;;;;;;13.17;4.47;;;1.80;93.30;;;;;;5075371;28;20047;-72
2021/03/18 04:59:51;;;;;;;14.03;3.93;;;1.80;93.30;;;;;;5075120;28;20529;-72
2021/03/18 05:02:19;;;;;;;9.10;4.10;;;1.80;93.40;;;;;;5072174;28;20029;-73
2021/03/18 05:04:45;;;;;;;13.50;4.20;;;1.80;93.40;;;;;;5072897;28;20062;-73
2021/03/18 05:07:13;;;;;;;9.03;4.33;;;1.80;93.50;;;;;;5074736;28;20456;-73
2021/03/18 05:09:39;;;;;;;11.07;4.40;;;1.90;93.50;;;;;;5068133;28;20464;-72
2021/03/18 05:12:07;;;;;;;12.40;4.17;;;1.90;93.60;;;;;;5037079;28;20116;-73
2021/03/18 05:14:34;;;;;;;8.70;3.70;;;2.00;93.60;;;;;;5054913;28;20549;-74
2021/03/18 05:17:00;;;;;;;15.00;4.13;;;2.00;93.60;;;;;;5054088;28;20029;-76
2021/03/18 05:19:27;;;;;;;13.33;4.67;;;2.10;93.60;;;;;;5053587;28;20056;-76
2021/03/18 05:21:54;;;;;;;9.40;3.93;;;2.10;93.60;;;;;;5054760;28;20123;-76
2021/03/18 05:24:20;;;;;;;9.40;3.70;;;2.10;93.60;;;;;;5054630;28;20025;-77
2021/03/18 05:26:46;;;;;;;10.43;3.53;;;2.10;93.60;;;;;;5054466;28;20029;-76
2021/03/18 05:29:14;;;;;;;8.93;3.57;;;2.10;93.60;;;;;;5044983;28;20439;-77
2021/03/18 05:31:40;;;;;;;13.10;3.90;;;2.10;93.60;;;;;;5055513;28;20021;-76
2021/03/18 05:34:05;;;;;;;7.70;3.73;;;2.10;93.60;;;;;;5072857;28;20098;-77
2021/03/18 05:36:31;;;;;;;8.97;3.53;;;2.20;93.60;;;;;;5055706;28;20468;-77
2021/03/18 05:38:57;;;;;;;12.33;4.67;;;2.20;93.60;;;;;;5073012;28;20401;-77
2021/03/18 05:41:23;;;;;;;13.00;3.30;;;2.30;93.60;;;;;;5071195;28;20056;-77
2021/03/18 05:43:49;;;;;;;10.03;3.30;;;2.30;93.60;;;;;;5073154;28;20032;-72
2021/03/18 05:46:16;;;;;;;7.07;2.90;;;2.30;93.60;;;;;;5073583;28;20098;-73
2021/03/18 05:48:43;;;;;;;9.17;3.50;;;2.30;93.50;;;;;;5072409;28;20025;-72
2021/03/18 05:51:15;;;;;;;7.73;2.60;;;2.30;93.50;;;;;;5074164;28;20081;-72
2021/03/18 05:53:43;;;;;;;9.57;3.40;;;2.30;93.50;;;;;;5074303;28;20040;-73
2021/03/18 05:56:17;;;;;;;12.27;3.57;;;2.40;93.50;;;;;;5074204;28;20043;-72
2021/03/18 05:58:46;;;;;;;13.43;2.88;;;2.40;93.50;;;;;;5061585;28;20033;-72
2021/03/18 06:01:12;;;;;;;11.83;2.80;;;2.40;93.50;;;;;;5051443;28;20028;-73
2021/03/18 06:03:38;;;;;;;12.40;3.33;;;2.40;93.50;;;;;;5034877;28;20021;-72
2021/03/18 06:06:05;;;;;;;8.83;2.90;;;2.40;93.50;;;;;;5034820;28;20075;-72
2021/03/18 06:08:34;;;;;;;9.17;3.00;;;2.60;93.50;;;;;;5052629;28;20033;-72
2021/03/18 06:11:00;;;;;;;8.90;3.37;;;2.40;93.50;;;;;;5053995;28;20021;-73
2021/03/18 06:13:26;;;;;;;10.60;3.20;;;2.50;93.50;;;;;;5052583;28;20024;-73
2021/03/18 06:15:51;;;;;;;13.30;3.40;;;2.50;93.50;;;;;;5058283;28;20028;-73
2021/03/18 06:18:20;;;;;;;14.10;3.23;;;2.50;93.50;;;;;;5061510;28;20029;-72
2021/03/18 06:20:53;;;;;;;13.00;3.53;;;2.50;93.50;;;;;;5069114;28;20056;-72
2021/03/18 06:23:20;;;;;;;7.35;2.78;;;2.50;93.50;;;;;;5057934;28;20028;-73
2021/03/18 06:25:46;;;;;;;14.07;3.30;;;2.60;93.50;;;;;;5052365;28;20060;-73
2021/03/18 06:28:28;;;;;;;14.00;3.30;;;2.60;93.50;;;;;;5060078;28;20340;-73
2021/03/18 06:31:07;;;;;;;12.47;2.97;;;2.60;93.50;;;;;;5069877;28;20036;-73
2021/03/18 06:33:48;;;;;;;9.90;3.43;;;2.60;93.50;;;;;;5059881;28;20047;-72
2021/03/18 06:36:21;;;;;;;8.40;2.90;;;2.60;93.50;;;;;;5053288;28;20056;-72
2021/03/18 06:39:07;;;;;;;14.20;3.33;;;2.70;93.50;;;;;;5053385;28;20476;-72
2021/03/18 06:41:37;;;;;;;10.13;3.63;;;2.60;93.50;;;;;;5064145;28;22067;-73
2021/03/18 06:44:24;;;;;;;13.03;5.00;;;2.70;93.50;;;;;;5070169;28;20124;-72
2021/03/18 06:46:51;;;;;;;10.43;3.10;;;2.60;93.50;;;;;;5064617;28;20023;-72
2021/03/18 06:49:19;;;;;;;15.70;3.77;;;2.60;93.50;;;;;;5072030;28;20070;-72
2021/03/18 06:52:01;;;;;;;9.27;3.43;;;2.80;93.60;;;;;;5067987;28;20438;-72
2021/03/18 06:54:26;;;;;;;11.97;3.80;;;2.70;93.60;;;;;;5061955;28;20476;-71
2021/03/18 06:56:57;;;;;;;11.47;3.57;;;2.70;93.60;;;;;;5061540;28;20067;-72
2021/03/18 06:59:34;;;;;;;17.63;5.53;;;2.80;93.70;;;;;;5060248;28;20113;-72
2021/03/18 07:02:03;;;;;;;9.43;3.50;;;2.80;93.70;;;;;;5060852;28;20377;-72
2021/03/18 07:04:36;;;;;;;11.83;4.20;;;2.90;93.70;;;;;;5052860;28;20029;-72
2021/03/18 07:07:02;;;;;;;9.57;3.25;;;3.00;93.80;;;;;;5051098;28;20052;-71
2021/03/18 07:09:29;;;;;;;11.60;3.43;;;3.00;93.80;;;;;;5055878;28;20064;-71
2021/03/18 07:12:06;;;;;;;16.30;4.67;;;3.10;93.80;;;;;;5060987;28;20033;-72
2021/03/18 07:14:42;;;;;;;9.53;3.83;;;3.20;93.80;;;;;;5067715;28;20028;-71
2021/03/18 07:17:10;;;;;;;14.00;4.20;;;3.20;93.70;;;;;;5070824;28;20203;-72
2021/03/18 07:19:36;;;;;;;10.90;3.87;;;3.30;93.70;;;;;;5061777;28;20377;-73
2021/03/18 07:22:03;;;;;;;10.67;4.20;;;3.40;93.70;;;;;;5057755;28;20036;-73
2021/03/18 07:24:33;;;;;;;13.30;3.90;;;3.40;93.80;;;;;;5052790;28;20151;-72
2021/03/18 07:27:11;;;;;;;12.23;4.17;;;3.50;93.70;;;;;;5053512;28;20031;-72
2021/03/18 07:29:42;;;;;;;12.23;3.87;;;3.50;93.70;;;;;;5052526;28;20021;-72
2021/03/18 07:32:09;;;;;;;16.53;4.47;;;3.60;93.70;;;;;;5052389;28;20059;-71
2021/03/18 07:34:36;;;;;;;12.67;3.93;;;3.70;93.70;;;;;;5052464;28;20025;-72
2021/03/18 07:37:02;;;;;;;11.67;4.30;;;3.80;93.70;;;;;;5052627;28;20029;-72
2021/03/18 07:39:28;;;;;;;17.93;4.83;;;3.90;93.70;;;;;;5051562;28;20025;-72
2021/03/18 07:41:55;;;;;;;14.27;4.73;;;3.90;93.70;;;;;;5058810;28;20045;-72
2021/03/18 07:44:21;;;;;;;11.83;4.23;;;4.00;93.60;;;;;;5053988;28;20027;-73
2021/03/18 07:46:48;;;;;;;15.27;4.50;;;4.00;93.70;;;;;;5056794;28;20021;-72
2021/03/18 07:49:18;;;;;;;9.17;4.27;;;4.20;93.70;;;;;;5053025;28;20395;-72
2021/03/18 07:51:46;;;;;;;12.80;5.07;;;4.40;93.80;;;;;;5052267;28;20073;-72
2021/03/18 07:54:15;;;;;;;14.83;4.97;;;4.40;94.00;;;;;;5064061;28;20060;-72
2021/03/18 07:56:48;;;;;;;14.80;4.93;;;4.50;93.80;;;;;;5046038;28;20029;-72
2021/03/18 07:59:15;;;;;;;16.15;4.82;;;4.50;93.70;;;;;;5043996;28;20396;-72
2021/03/18 08:01:41;;;;;;;16.93;6.83;;;4.60;93.70;;;;;;5059682;28;20131;-72
2021/03/18 08:04:12;;;;;;;16.37;4.90;;;4.70;93.60;;;;;;5063252;28;20495;-72
2021/03/18 08:06:40;;;;;;;14.13;5.37;;;4.80;93.60;;;;;;5060008;28;20025;-73
2021/03/18 08:09:14;;;;;;;16.27;5.27;;;4.80;93.50;;;;;;5060679;28;20025;-71
2021/03/18 08:11:41;;;;;;;15.70;6.15;;;4.90;93.50;;;;;;5062825;28;20020;-74
2021/03/18 08:14:08;;;;;;;12.07;4.97;;;4.90;93.50;;;;;;5058238;28;20473;-76
2021/03/18 08:16:34;;;;;;;16.57;5.20;;;5.00;93.40;;;;;;5064446;28;20033;-77
2021/03/18 08:19:01;;;;;;;14.07;5.43;;;5.00;93.20;;;;;;5062166;28;20383;-76
2021/03/18 08:21:42;;;;;;;13.57;5.20;;;5.00;93.20;;;;;;5050323;28;20023;-75
2021/03/18 08:24:13;;;;;;;16.03;4.80;;;5.00;92.90;;;;;;5063320;28;20052;-75
2021/03/18 08:26:50;;;;;;;16.00;5.27;;;5.10;93.20;;;;;;5056559;28;20022;-75
2021/03/18 08:29:25;;;;;;;15.23;5.47;;;5.10;93.20;;;;;;5056958;28;20017;-75
2021/03/18 08:31:54;;;;;;;15.20;6.07;;;5.10;93.20;;;;;;5070160;28;20032;-75
2021/03/18 08:34:21;;;;;;;14.77;5.23;;;5.20;93.20;;;;;;5055078;28;20489;-75
2021/03/18 08:36:56;;;;;;;12.63;5.17;;;5.30;93.30;;;;;;5054897;28;20069;-75
2021/03/18 08:39:33;;;;;;;;;;;5.30;93.20;;;;;;5062804;28;20032;-71
2021/03/18 08:41:59;;;;;;;12.23;4.63;;;5.30;93.20;;;;;;5055081;28;20288;-71
2021/03/18 08:44:31;;;;;;;12.77;4.63;;;5.40;93.20;;;;;;5054072;28;20473;-72
2021/03/18 08:47:01;;;;;;;14.53;4.63;;;5.50;93.20;;;;;;5053684;28;20021;-71
2021/03/18 08:49:43;;;;;;;12.77;5.47;;;5.50;93.20;;;;;;5055004;28;20028;-71
2021/03/18 08:52:10;;;;;;;11.23;4.83;;;5.70;93.30;;;;;;5062489;28;20024;-72
2021/03/18 08:54:36;;;;;;;13.80;5.40;;;5.70;93.30;;;;;;5065481;28;20034;-71
2021/03/18 08:57:12;;;;;;;17.53;5.33;;;5.80;93.30;;;;;;5059455;28;20029;-72
2021/03/18 08:59:44;;;;;;;15.83;4.80;;;5.90;93.30;;;;;;5073584;28;20025;-72
2021/03/18 09:02:13;;;;;;;16.77;5.87;;;6.10;93.30;;;;;;5074725;28;20016;-73
2021/03/18 09:04:47;;;;;;;13.17;5.23;;;6.20;93.20;;;;;;5074236;28;20023;-73
2021/03/18 09:07:15;;;;;;;13.68;5.70;;;6.20;93.20;;;;;;5052739;28;20033;-73
2021/03/18 09:09:42;;;;;;;13.67;6.03;;;6.30;93.10;;;;;;5054718;28;20021;-72
2021/03/18 09:12:09;;;;;;;20.17;6.77;;;6.40;93.10;;;;;;5054950;28;20017;-73
2021/03/18 09:14:41;;;;;;;13.77;6.03;;;6.50;93.10;;;;;;5054213;28;20122;-72
2021/03/18 09:17:13;;;;;;;15.87;6.07;;;6.50;93.00;;;;;;5054549;28;20353;-73
2021/03/18 09:19:44;;;;;;;16.60;6.27;;;6.60;92.80;;;;;;5053458;28;20064;-73
2021/03/18 09:22:14;;;;;;;12.63;6.03;;;6.70;92.70;;;;;;5052584;28;20488;-73
2021/03/18 09:24:43;;;;;;;16.90;5.97;;;6.70;92.60;;;;;;5053106;28;20491;-77
2021/03/18 09:27:13;;;;;;;18.33;6.97;;;6.80;92.60;;;;;;5054556;28;20108;-77
2021/03/18 09:29:41;;;;;;;19.17;5.50;;;6.90;92.60;;;;;;5065741;28;20024;-77
2021/03/18 09:32:08;;;;;;;14.77;5.13;;;6.90;92.50;;;;;;5074191;28;20095;-77
2021/03/18 09:34:42;;;;;;;16.83;5.70;;;7.00;92.50;;;;;;5039165;28;20673;-77
2021/03/18 09:37:08;;;;;;;17.25;5.18;;;7.10;92.30;;;;;;5053960;28;20407;-77
2021/03/18 09:39:35;;;;;;;21.97;5.83;;;7.20;92.30;;;;;;5053498;28;20060;-77
2021/03/18 09:42:05;;;;;;;27.77;6.70;;;7.20;92.10;;;;;;5055391;28;20080;-77
2021/03/18 09:44:31;;;;;;;19.27;5.50;;;7.20;91.90;;;;;;5073857;28;20029;-77
2021/03/18 09:47:02;;;;;;;20.63;5.43;;;7.30;91.80;;;;;;5056015;28;20044;-76
2021/03/18 09:49:35;;;;;;;24.97;6.10;;;7.30;91.60;;;;;;5073373;28;20107;-77
2021/03/18 09:52:07;;;;;;;18.73;4.90;;;7.40;91.60;;;;;;5071526;28;20031;-77
2021/03/18 09:54:33;;;;;;;21.30;5.80;;;7.50;91.50;;;;;;5056478;28;20112;-77
2021/03/18 09:57:10;;;;;;;19.07;4.37;;;7.60;91.50;;;;;;5061506;28;20140;-77
2021/03/18 09:59:36;;;;;;;17.60;4.70;;;7.60;91.40;;;;;;5066752;28;20099;-78
2021/03/18 10:02:03;;;;;;;19.50;4.83;;;7.70;91.40;;;;;;5060739;28;20039;-77
2021/03/18 10:04:37;;;;;;;17.83;4.60;;;7.80;91.40;;;;;;5064943;28;20372;-77
2021/03/18 10:07:02;;;;;;;22.50;4.88;;;8.00;91.60;;;;;;5064156;28;20040;-76
2021/03/18 10:09:32;;;;;;;18.17;5.17;;;8.10;91.40;;;;;;5059460;28;20071;-73
2021/03/18 10:12:07;;;;;;;18.67;4.63;;;8.10;90.70;;;;;;5053644;28;20029;-72
2021/03/18 10:14:37;;;;;;;17.40;3.93;;;8.20;90.60;;;;;;5061182;28;20111;-72
2021/03/18 10:17:05;;;;;;;23.23;4.90;;;8.30;90.40;;;;;;5057092;28;20442;-73
2021/03/18 10:19:33;;;;;;;17.47;4.80;;;8.30;90.40;;;;;;5066607;28;20040;-73
2021/03/18 10:22:01;;;;;;;20.57;4.60;;;8.40;90.20;;;;;;5060018;28;20036;-72
2021/03/18 10:24:26;;;;;;;23.33;4.87;;;8.50;90.10;;;;;;5054027;28;21098;-77
2021/03/18 10:26:52;;;;;;;19.77;4.13;;;8.50;90.00;;;;;;5038440;28;20024;-78
2021/03/18 10:29:18;;;;;;;20.53;4.93;;;8.60;89.80;;;;;;5054661;28;20058;-79
2021/03/18 10:31:44;;;;;;;18.77;4.00;;;8.70;89.40;;;;;;5067306;28;20079;-78
2021/03/18 10:34:23;;;;;;;20.60;3.93;;;8.80;89.40;;;;;;5069684;28;20037;-78
2021/03/18 10:36:49;;;;;;;23.17;4.50;;;8.80;88.90;;;;;;5072170;28;20024;-78
2021/03/18 10:39:15;;;;;;;21.47;4.37;;;8.80;87.80;;;;;;5073735;28;20024;-78
2021/03/18 10:41:56;;;;;;;21.40;4.47;;;8.80;88.50;;;;;;5073568;28;20029;-78
2021/03/18 10:44:34;;;;;;;16.80;3.63;;;8.90;87.90;;;;;;5073413;28;20078;-73
2021/03/18 10:47:15;;;;;;;19.00;4.40;;;8.90;87.80;;;;;;5068184;28;20060;-73
2021/03/18 10:49:53;;;;;;;23.23;5.17;;;9.00;87.70;;;;;;5069059;28;20025;-73
2021/03/18 10:52:19;;;;;;;19.00;4.23;;;9.10;87.90;;;;;;5053301;28;20025;-73
2021/03/18 10:54:44;;;;;;;17.30;3.80;;;9.30;87.80;;;;;;5038177;28;20039;-72
2021/03/18 10:57:11;;;;;;;23.80;4.43;;;9.50;87.10;;;;;;5051235;28;20431;-73
2021/03/18 10:59:37;;;;;;;22.07;4.00;;;9.50;86.50;;;;;;5063817;28;20063;-73
2021/03/18 11:02:04;;;;;;;20.20;4.87;;;9.40;85.80;;;;;;5035418;28;20067;-73
2021/03/18 11:04:30;;;;;;;22.60;3.73;;;9.50;85.60;;;;;;5054628;28;20033;-79
2021/03/18 11:06:55;;;;;;;16.87;3.87;;;9.50;84.90;;;;;;5061122;28;20045;-79
2021/03/18 11:09:21;;;;;;;17.53;4.30;;;9.50;83.70;;;;;;5051622;28;20036;-79
2021/03/18 11:11:58;;;;;;;19.77;4.93;;;9.60;83.40;;;;;;5051849;28;20094;-79
2021/03/18 11:14:26;;;;;;;14.53;3.73;;;9.60;82.60;;;;;;5052513;28;20554;-79
2021/03/18 11:17:07;;;;;;;14.20;3.67;;;9.60;82.50;;;;;;5063813;28;20028;-79
2021/03/18 11:19:32;;;;;;;23.17;4.93;;;9.60;82.50;;;;;;5071536;28;20028;-79
2021/03/18 11:22:06;;;;;;;17.80;3.93;;;9.50;82.30;;;;;;5051579;28;20041;-79
2021/03/18 11:24:32;;;;;;;22.63;4.20;;;9.60;82.50;;;;;;5071500;28;20032;-79
2021/03/18 11:27:04;;;;;;;23.17;3.80;;;9.40;81.60;;;;;;5057799;28;20025;-79
2021/03/18 11:29:35;;;;;;;23.63;4.53;;;9.40;80.40;;;;;;5051614;28;20025;-79
2021/03/18 11:32:05;;;;;;;20.77;4.83;;;9.30;80.20;;;;;;5051735;28;20025;-78
2021/03/18 11:34:41;;;;;;;17.80;3.10;;;9.20;80.10;;;;;;5055383;28;20480;-79
2021/03/18 11:37:09;;;;;;;21.77;4.70;;;9.10;80.20;;;;;;5071767;28;20024;-79
2021/03/18 11:39:35;;;;;;;19.90;4.23;;;9.10;80.20;;;;;;5073232;28;20036;-79
2021/03/18 11:42:01;;;;;;;30.37;4.87;;;9.10;80.30;;;;;;5072591;28;20126;-79
2021/03/18 11:44:29;;;;;;;23.83;4.10;;;9.00;79.80;;;;;;5061798;28;20128;-79
2021/03/18 11:47:04;;;;;;;17.93;3.83;;;9.00;79.90;;;;;;5075321;28;20098;-79
2021/03/18 11:49:30;;;;;;;19.77;3.73;;;8.90;80.20;;;;;;5076429;28;20120;-79
2021/03/18 11:51:56;;;;;;;26.67;4.67;;;8.90;79.80;;;;;;5064331;28;20029;-79
2021/03/18 11:54:21;;;;;;;21.43;3.70;;;8.80;79.80;;;;;;5055287;28;20040;-79
2021/03/18 11:56:47;;;;;;;18.70;3.73;;;8.80;80.00;;;;;;5055280;28;20365;-80
2021/03/18 11:59:13;;;;;;;16.57;4.17;;;8.80;80.20;;;;;;5055199;28;20029;-80
2021/03/18 12:01:39;;;;;;;17.83;3.53;;;8.80;80.50;;;;;;5056671;28;20025;-80
2021/03/18 12:04:05;;;;;;;18.17;3.93;;;8.80;80.50;;;;;;5056340;28;20029;-79
2021/03/18 12:06:30;;;;;;;15.70;3.47;;;8.90;80.70;;;;;;5039635;28;20025;-80
2021/03/18 12:08:56;;;;;;;17.27;3.40;;;8.90;80.80;;;;;;5055431;28;20032;-80
2021/03/18 12:11:21;;;;;;;15.83;3.07;;;9.00;81.60;;;;;;5051312;28;20040;-79
2021/03/18 12:13:47;;;;;;;13.73;3.10;;;9.20;81.10;;;;;;5056191;28;20108;-79
2021/03/18 12:16:13;;;;;;;22.27;3.60;;;9.20;80.50;;;;;;5054985;28;20074;-80
2021/03/18 12:18:38;;;;;;;15.10;3.43;;;9.40;80.80;;;;;;5056037;28;20373;-80
2021/03/18 12:21:04;;;;;;;19.93;3.63;;;9.60;81.00;;;;;;5038374;28;20040;-80
2021/03/18 12:23:30;;;;;;;16.77;3.47;;;9.80;82.00;;;;;;5039308;28;20524;-80
2021/03/18 12:25:56;;;;;;;16.70;2.47;;;10.40;83.10;;;;;;5054921;28;20029;-80
2021/03/18 12:28:21;;;;;;;12.98;2.35;;;10.70;81.90;;;;;;5054529;28;20500;-80
2021/03/18 12:30:51;;;;;;;18.02;2.75;;;11.00;81.00;;;;;;5056150;28;20025;-80
2021/03/18 12:33:18;;;;;;;18.00;3.42;;;11.10;79.70;;;;;;5061873;28;20017;-79
2021/03/18 12:35:45;;;;;;;16.33;3.20;;;11.30;78.60;;;;;;5071044;28;20484;-80
2021/03/18 12:38:11;;;;;;;14.63;3.03;;;11.40;78.00;;;;;;5055712;28;20098;-80
2021/03/18 12:40:37;;;;;;;13.23;1.77;;;11.60;77.40;;;;;;5062586;28;20037;-81
2021/03/18 12:43:02;;;;;;;13.55;1.85;;;11.60;76.00;;;;;;5040797;28;20040;-82
2021/03/18 12:45:31;;;;;;;12.68;1.80;;;11.50;74.20;;;;;;5074404;28;20033;-81
2021/03/18 12:47:58;;;;;;;12.73;2.15;;;11.50;72.80;;;;;;5069765;28;20033;-82
2021/03/18 12:50:25;;;;;;;13.18;1.67;;;11.40;72.90;;;;;;5036405;28;20091;-82
2021/03/18 12:52:50;;;;;;;11.10;1.67;;;11.40;73.00;;;;;;5047911;28;20016;-82
2021/03/18 12:55:17;;;;;;;14.25;1.83;;;11.40;73.20;;;;;;5067227;28;20443;-82
2021/03/18 12:57:43;;;;;;;13.75;2.03;;;11.40;73.10;;;;;;5052498;28;20025;-82
2021/03/18 13:00:11;;;;;;;9.77;1.15;;;11.40;72.50;;;;;;5054886;28;20090;-82